Bel Air Beach, Iowa
Current Conditions -  °F | °C
As of 2:35 AM on Saturday 25 Oct 2014 (Local Time) from KSLB Reporting Station
Clear Clear  
Wind Chill: 55°   Ceiling: Unl
Heat Index: 55°   Visibility: 10mi
Dew Point: 43°   Wind: 10mph
Humidity: 63%   Direction: 310°NW
Pressure: 30.03"   Gusts: NA
Location:  42.674°N, 95.1635°W
Report Text: KSLB 250735Z AUTO 31009KT 10SM CLR 13/06 A3003 RMK AO2
Loading
Personal Weather Stations






























Interactive Weather Map
Tropical Storm Tracking
New forecast layout! Learn more

10-Day Weather Forecast

Advertisements
Track Severe Weather on mobile